Time;durP1;ratioP1;P1;durP2;ratioP2;P2;SDS_P1;SDS_P2;PMS_P1;PMS_P2;Temp;Humidity;BMP_temperature;BMP_pressure;BME280_temperature;BME280_humidity;BME280_pressure;Samples;Min_cycle;Max_cycle;Signal;HPM_P1;HPM_P2
2023/04/21 00:01:17;;;;;;;16.10;7.95;;;9.30;99.90;;;;;;7405044;19;19937;-75
2023/04/21 00:03:46;;;;;;;12.13;7.40;;;9.40;99.90;;;;;;7405583;19;19974;-74
2023/04/21 00:06:21;;;;;;;12.75;7.60;;;9.20;99.90;;;;;;7403808;19;19939;-75
2023/04/21 00:08:50;;;;;;;14.23;8.63;;;9.20;99.90;;;;;;7402861;19;19929;-75
2023/04/21 00:11:19;;;;;;;14.52;7.20;;;9.20;99.90;;;;;;7404733;19;19926;-75
2023/04/21 00:13:48;;;;;;;13.73;7.85;;;9.20;99.90;;;;;;7402406;19;19920;-74
2023/04/21 00:16:20;;;;;;;12.35;7.35;;;9.20;99.90;;;;;;7405234;19;20288;-74
2023/04/21 00:18:49;;;;;;;14.98;7.65;;;9.20;99.90;;;;;;7403079;19;19915;-75
2023/04/21 00:21:18;;;;;;;12.63;7.78;;;9.20;99.90;;;;;;7404433;19;19943;-74
2023/04/21 00:23:48;;;;;;;14.38;7.93;;;9.10;99.90;;;;;;7402884;19;19921;-74
2023/04/21 00:26:19;;;;;;;12.77;7.57;;;9.00;99.90;;;;;;7403626;19;20308;-74
2023/04/21 00:28:48;;;;;;;14.70;8.10;;;9.10;99.90;;;;;;7403367;19;19930;-74
2023/04/21 00:31:17;;;;;;;15.07;7.80;;;9.00;99.90;;;;;;7402616;19;19940;-75
2023/04/21 00:33:48;;;;;;;12.55;7.47;;;9.00;99.90;;;;;;7402190;19;20313;-74
2023/04/21 00:36:17;;;;;;;15.18;7.45;;;9.10;99.90;;;;;;7403593;19;19946;-74
2023/04/21 00:38:46;;;;;;;12.43;6.88;;;9.00;99.90;;;;;;7404483;19;19930;-74
2023/04/21 00:41:15;;;;;;;11.45;7.30;;;9.00;99.90;;;;;;7402732;19;19919;-75
2023/04/21 00:44:02;;;;;;;12.90;7.43;;;9.10;99.90;;;;;;7404183;19;20455;-75
2023/04/21 00:46:31;;;;;;;16.15;8.23;;;8.90;99.90;;;;;;7403679;19;19930;-74
2023/04/21 00:49:07;;;;;;;18.08;8.55;;;8.90;99.90;;;;;;7402808;19;19918;-75
2023/04/21 00:51:38;;;;;;;14.02;7.43;;;9.00;99.90;;;;;;7404457;19;20277;-75
2023/04/21 00:54:08;;;;;;;11.63;7.80;;;8.90;99.90;;;;;;7400612;19;19926;-75
2023/04/21 00:56:44;;;;;;;13.48;7.68;;;8.90;99.90;;;;;;7404044;19;19918;-75
2023/04/21 00:59:17;;;;;;;14.48;7.28;;;9.00;99.90;;;;;;7402570;19;19922;-75
2023/04/21 01:01:46;;;;;;;12.10;8.00;;;9.00;99.90;;;;;;7403796;19;19918;-75
2023/04/21 01:04:18;;;;;;;12.65;7.68;;;9.00;99.90;;;;;;7402131;19;19922;-75
2023/04/21 01:06:47;;;;;;;16.48;8.02;;;8.80;99.90;;;;;;7401959;19;19922;-75
2023/04/21 01:09:17;;;;;;;12.10;7.50;;;8.90;99.90;;;;;;7403457;19;19949;-75
2023/04/21 01:12:02;;;;;;;12.32;7.68;;;8.80;99.90;;;;;;7401992;19;20278;-75
2023/04/21 01:14:31;;;;;;;12.75;7.32;;;8.80;99.90;;;;;;7402710;19;20279;-75
2023/04/21 01:17:02;;;;;;;10.45;7.05;;;8.70;99.90;;;;;;7404403;19;19942;-75
2023/04/21 01:19:44;;;;;;;12.77;7.70;;;8.80;99.90;;;;;;7402109;19;19921;-75
2023/04/21 01:22:17;;;;;;;17.38;8.60;;;8.90;99.90;;;;;;7402821;19;19946;-75
2023/04/21 01:24:48;;;;;;;13.38;7.88;;;8.80;99.90;;;;;;7402746;19;19933;-75
2023/04/21 01:27:20;;;;;;;14.30;7.15;;;8.60;99.90;;;;;;7403163;19;19923;-75
2023/04/21 01:29:50;;;;;;;11.77;7.05;;;8.70;99.90;;;;;;7402444;19;20423;-75
2023/04/21 01:32:21;;;;;;;11.90;7.45;;;8.80;99.90;;;;;;7399457;19;20336;-76
2023/04/21 01:34:51;;;;;;;13.38;7.70;;;8.60;99.90;;;;;;7404660;19;20358;-75
2023/04/21 01:37:25;;;;;;;14.57;7.63;;;8.60;99.90;;;;;;7403292;19;20237;-75
2023/04/21 01:39:56;;;;;;;13.63;7.88;;;8.50;99.90;;;;;;7403810;19;19933;-76
2023/04/21 01:42:27;;;;;;;13.60;8.23;;;8.60;99.90;;;;;;7400572;19;19959;-76
2023/04/21 01:44:57;;;;;;;13.35;7.53;;;8.50;99.90;;;;;;7402099;19;19926;-76
2023/04/21 01:47:26;;;;;;;11.98;8.05;;;8.50;99.90;;;;;;7400048;19;19950;-75
2023/04/21 01:49:58;;;;;;;11.95;6.97;;;8.50;99.90;;;;;;7401296;19;20689;-76
2023/04/21 01:52:32;;;;;;;14.95;8.40;;;8.40;99.90;;;;;;7400990;19;19930;-75
2023/04/21 01:55:01;;;;;;;19.98;8.05;;;8.50;99.90;;;;;;7401788;19;19926;-75
2023/04/21 01:57:30;;;;;;;17.42;8.90;;;8.50;99.90;;;;;;7402204;19;19931;-75
2023/04/21 01:59:59;;;;;;;13.52;7.65;;;8.50;99.90;;;;;;7402155;19;19927;-75
2023/04/21 02:02:28;;;;;;;13.18;8.43;;;8.50;99.90;;;;;;7401814;19;19925;-76
2023/04/21 02:04:57;;;;;;;14.35;7.55;;;8.40;99.90;;;;;;7401142;19;19926;-76
2023/04/21 02:07:26;;;;;;;13.77;8.13;;;8.40;99.90;;;;;;7401534;19;19922;-76
2023/04/21 02:09:58;;;;;;;13.40;8.25;;;8.40;99.90;;;;;;7399919;19;19926;-75
2023/04/21 02:12:27;;;;;;;12.15;8.07;;;8.40;99.90;;;;;;7398982;19;20341;-75
2023/04/21 02:14:56;;;;;;;13.02;7.90;;;8.30;99.90;;;;;;7401037;19;20404;-75
2023/04/21 02:17:25;;;;;;;14.80;9.10;;;8.30;99.90;;;;;;7397205;19;19923;-75
2023/04/21 02:19:54;;;;;;;14.38;8.70;;;8.40;99.90;;;;;;7400854;19;20003;-75
2023/04/21 02:22:24;;;;;;;17.38;8.85;;;8.80;99.90;;;;;;7401619;19;20368;-76
2023/04/21 02:24:53;;;;;;;18.20;8.75;;;8.20;99.90;;;;;;7401125;19;20348;-76
2023/04/21 02:27:25;;;;;;;15.63;8.48;;;8.30;99.90;;;;;;7400738;19;19919;-75
2023/04/21 02:29:54;;;;;;;14.38;7.80;;;8.30;99.90;;;;;;7403369;19;20002;-75
2023/04/21 02:32:23;;;;;;;12.40;8.23;;;8.30;99.90;;;;;;7401720;19;19947;-75
2023/04/21 02:34:52;;;;;;;16.77;7.60;;;8.20;99.90;;;;;;7401833;19;19930;-76
2023/04/21 02:37:21;;;;;;;12.70;7.32;;;8.50;99.90;;;;;;7403123;19;19934;-76
2023/04/21 02:39:50;;;;;;;13.02;7.40;;;8.40;99.90;;;;;;7401975;19;19922;-75
2023/04/21 02:42:20;;;;;;;15.10;8.73;;;8.30;99.90;;;;;;7400537;19;19930;-75
2023/04/21 02:44:51;;;;;;;15.43;9.05;;;8.30;99.90;;;;;;7400768;19;19911;-75
2023/04/21 02:47:20;;;;;;;15.02;7.97;;;8.30;99.90;;;;;;7398947;19;20022;-75
2023/04/21 02:49:49;;;;;;;12.93;7.25;;;8.20;99.90;;;;;;7399767;19;19998;-75
2023/04/21 02:52:18;;;;;;;13.73;7.35;;;8.30;99.90;;;;;;7399359;19;19922;-75
2023/04/21 02:54:47;;;;;;;20.90;7.90;;;8.10;99.90;;;;;;7397649;19;19946;-75
2023/04/21 02:57:17;;;;;;;15.52;7.28;;;8.20;99.90;;;;;;7399181;19;19919;-75
2023/04/21 02:59:46;;;;;;;13.52;8.05;;;8.10;99.90;;;;;;7400704;19;20383;-75
2023/04/21 03:02:18;;;;;;;14.55;7.07;;;8.10;99.90;;;;;;7398837;19;19946;-75
2023/04/21 03:04:47;;;;;;;15.35;8.32;;;8.90;99.90;;;;;;7398807;19;20252;-75
2023/04/21 03:07:16;;;;;;;11.15;7.57;;;8.20;99.90;;;;;;7399448;19;19942;-75
2023/04/21 03:09:45;;;;;;;14.77;7.93;;;8.20;99.90;;;;;;7399333;19;19918;-75
2023/04/21 03:12:14;;;;;;;15.02;7.82;;;8.00;99.90;;;;;;7398507;19;19950;-75
2023/04/21 03:14:43;;;;;;;15.10;8.40;;;8.10;99.90;;;;;;7398023;19;19930;-75
2023/04/21 03:17:12;;;;;;;15.60;8.25;;;9.40;99.90;;;;;;7400037;19;19925;-75
2023/04/21 03:19:43;;;;;;;12.20;7.00;;;8.10;99.90;;;;;;7400805;19;20015;-75
2023/04/21 03:22:12;;;;;;;16.80;7.82;;;8.20;99.90;;;;;;7403024;19;19942;-75
2023/04/21 03:24:41;;;;;;;14.02;6.97;;;8.00;99.90;;;;;;7404658;19;19935;-75
2023/04/21 03:27:12;;;;;;;12.50;8.07;;;7.90;99.90;;;;;;7405016;19;19914;-76
2023/04/21 03:29:41;;;;;;;19.00;7.15;;;7.80;99.90;;;;;;7405370;19;20359;-75
2023/04/21 03:32:10;;;;;;;11.95;7.53;;;8.00;99.90;;;;;;7402956;19;19932;-75
2023/04/21 03:34:42;;;;;;;15.57;7.78;;;7.80;99.90;;;;;;7402872;19;19982;-75
2023/04/21 03:37:11;;;;;;;12.88;8.02;;;7.90;99.90;;;;;;7404974;19;20272;-76
2023/04/21 03:39:40;;;;;;;11.48;7.45;;;7.80;99.90;;;;;;7405089;19;19946;-75
2023/04/21 03:42:11;;;;;;;14.45;7.70;;;8.00;99.90;;;;;;7404609;19;19922;-75
2023/04/21 03:44:40;;;;;;;16.73;8.65;;;7.80;99.90;;;;;;7404741;19;19929;-75
2023/04/21 03:47:09;;;;;;;13.65;7.43;;;8.00;99.90;;;;;;7403716;19;20357;-75
2023/04/21 03:49:38;;;;;;;12.88;7.25;;;7.80;99.90;;;;;;7404946;19;19955;-75
2023/04/21 03:52:10;;;;;;;14.77;7.78;;;7.60;99.90;;;;;;7405689;19;19923;-75
2023/04/21 03:54:40;;;;;;;13.85;7.07;;;7.70;99.90;;;;;;7403762;19;20267;-75
2023/04/21 03:57:09;;;;;;;16.15;7.28;;;7.80;99.90;;;;;;7403567;19;19915;-75
2023/04/21 03:59:38;;;;;;;17.25;8.10;;;7.80;99.90;;;;;;7404422;19;19978;-75
2023/04/21 04:02:07;;;;;;;10.00;7.38;;;9.00;99.90;;;;;;7406445;19;19982;-75
2023/04/21 04:04:36;;;;;;;13.57;7.30;;;8.70;99.90;;;;;;7404516;19;19943;-76
2023/04/21 04:07:06;;;;;;;9.35;7.45;;;7.80;99.90;;;;;;7405689;19;19914;-75
2023/04/21 04:09:37;;;;;;;13.20;7.40;;;7.70;99.90;;;;;;7405963;19;20345;-75
2023/04/21 04:12:09;;;;;;;12.20;7.60;;;7.70;99.90;;;;;;7403562;19;19922;-75
2023/04/21 04:14:38;;;;;;;12.77;7.80;;;7.50;99.90;;;;;;7403220;19;19922;-75
2023/04/21 04:17:07;;;;;;;11.85;7.38;;;7.70;99.90;;;;;;7403738;19;19945;-75
2023/04/21 04:19:36;;;;;;;17.63;7.43;;;7.60;99.90;;;;;;7406149;19;19926;-75
2023/04/21 04:22:05;;;;;;;13.02;7.72;;;7.70;99.90;;;;;;7403179;19;19950;-76
2023/04/21 04:24:37;;;;;;;14.90;6.78;;;7.50;99.90;;;;;;7404304;19;19978;-75
2023/04/21 04:27:15;;;;;;;10.35;6.45;;;7.60;99.90;;;;;;7402512;19;19926;-75
2023/04/21 04:29:45;;;;;;;;;;;7.60;99.90;;;;;;7405784;19;19939;-75
2023/04/21 04:32:14;;;;;;;10.23;6.70;;;7.50;99.90;;;;;;7401523;19;20329;-75
2023/04/21 04:34:43;;;;;;;10.43;7.25;;;7.60;99.90;;;;;;7402040;19;19918;-75
2023/04/21 04:37:12;;;;;;;13.75;6.70;;;7.50;99.90;;;;;;7404463;19;19995;-75
2023/04/21 04:39:44;;;;;;;14.15;7.20;;;7.60;99.90;;;;;;7402746;19;19922;-75
2023/04/21 04:42:13;;;;;;;11.52;6.35;;;8.20;99.90;;;;;;7398800;19;20538;-75
2023/04/21 04:44:43;;;;;;;14.57;6.85;;;7.70;99.90;;;;;;7405117;19;19958;-75
2023/04/21 04:47:12;;;;;;;13.60;6.65;;;7.60;99.90;;;;;;7401632;19;19927;-75
2023/04/21 04:49:41;;;;;;;12.70;6.70;;;7.60;99.90;;;;;;7400982;19;20287;-75
2023/04/21 04:52:11;;;;;;;15.75;7.15;;;7.70;99.90;;;;;;7404194;19;19970;-75
2023/04/21 04:54:40;;;;;;;12.20;6.95;;;7.50;99.90;;;;;;7400316;19;20348;-75
2023/04/21 04:57:12;;;;;;;10.98;5.88;;;7.50;99.90;;;;;;7401954;19;19914;-75
2023/04/21 04:59:41;;;;;;;14.77;7.50;;;7.70;99.90;;;;;;7402625;19;20383;-75
2023/04/21 05:02:12;;;;;;;14.45;7.18;;;7.60;99.90;;;;;;7399249;19;19918;-74
2023/04/21 05:05:01;;;;;;;13.98;6.65;;;7.60;99.90;;;;;;7401199;19;19925;-75
2023/04/21 05:07:50;;;;;;;11.95;7.05;;;7.60;99.90;;;;;;7399782;19;19942;-75
2023/04/21 05:10:19;;;;;;;13.85;6.38;;;7.80;99.90;;;;;;7402270;19;20341;-75
2023/04/21 05:12:50;;;;;;;10.23;6.38;;;7.50;99.90;;;;;;7404409;19;19923;-75
2023/04/21 05:15:21;;;;;;;12.00;6.82;;;7.60;99.90;;;;;;7400686;19;19919;-75
2023/04/21 05:17:50;;;;;;;11.85;6.38;;;7.60;99.90;;;;;;7400394;19;19915;-75
2023/04/21 05:20:19;;;;;;;12.00;6.93;;;7.70;99.90;;;;;;7400469;19;19926;-75
2023/04/21 05:22:48;;;;;;;11.30;6.55;;;7.80;99.90;;;;;;7400473;19;20370;-75
2023/04/21 05:25:17;;;;;;;15.70;7.07;;;7.70;99.90;;;;;;7403940;19;19914;-75
2023/04/21 05:27:47;;;;;;;11.45;6.57;;;7.70;99.90;;;;;;7402563;19;19922;-75
2023/04/21 05:30:19;;;;;;;12.75;6.60;;;7.70;99.90;;;;;;7400207;19;20354;-75
2023/04/21 05:32:48;;;;;;;12.57;6.50;;;7.80;99.90;;;;;;7400523;19;19914;-76
2023/04/21 05:35:17;;;;;;;12.05;6.28;;;7.80;99.90;;;;;;7398584;19;20352;-75
2023/04/21 05:37:46;;;;;;;12.23;6.38;;;7.70;99.90;;;;;;7400946;19;19918;-74
2023/04/21 05:40:15;;;;;;;10.93;6.45;;;7.80;99.90;;;;;;7400574;19;20332;-75
2023/04/21 05:42:43;;;;;;;14.43;6.80;;;7.80;99.90;;;;;;7399702;19;19915;-75
2023/04/21 05:45:12;;;;;;;12.80;6.25;;;7.90;99.90;;;;;;7397906;19;19981;-78
2023/04/21 05:47:44;;;;;;;9.13;6.28;;;7.90;99.90;;;;;;7399954;19;19937;-75
2023/04/21 05:50:13;;;;;;;14.15;6.47;;;7.70;99.90;;;;;;7400391;19;19919;-76
2023/04/21 05:52:42;;;;;;;13.43;6.75;;;8.00;99.90;;;;;;7400249;19;19918;-75
2023/04/21 05:55:11;;;;;;;12.07;6.68;;;8.00;99.90;;;;;;7398098;19;19922;-74
2023/04/21 05:57:40;;;;;;;13.02;6.50;;;8.10;99.90;;;;;;7400345;19;19933;-75
2023/04/21 06:00:10;;;;;;;14.48;6.97;;;8.10;99.90;;;;;;7397763;19;19936;-76
2023/04/21 06:02:39;;;;;;;14.00;6.88;;;8.20;99.90;;;;;;7400798;19;19926;-75
2023/04/21 06:05:11;;;;;;;11.00;6.10;;;8.20;99.90;;;;;;7399023;19;19930;-75
2023/04/21 06:07:40;;;;;;;12.68;6.28;;;9.10;99.90;;;;;;7399110;19;20289;-75
2023/04/21 06:10:10;;;;;;;16.42;7.20;;;8.40;99.90;;;;;;7399895;19;19922;-76
2023/04/21 06:12:39;;;;;;;14.10;6.07;;;8.20;99.90;;;;;;7399171;19;19928;-79
2023/04/21 06:15:09;;;;;;;15.55;7.20;;;8.30;99.90;;;;;;7399864;19;20336;-79
2023/04/21 06:17:38;;;;;;;11.85;6.40;;;8.40;99.90;;;;;;7399255;19;19931;-80
2023/04/21 06:20:12;;;;;;;14.45;5.93;;;8.40;99.90;;;;;;7401960;19;19918;-79
2023/04/21 06:22:41;;;;;;;11.70;6.30;;;8.50;99.90;;;;;;7398622;19;19915;-76
2023/04/21 06:25:10;;;;;;;9.07;5.57;;;8.40;99.90;;;;;;7398165;19;19923;-78
2023/04/21 06:27:39;;;;;;;10.43;6.43;;;8.60;99.90;;;;;;7394324;19;19918;-78
2023/04/21 06:30:10;;;;;;;9.27;6.10;;;8.50;99.90;;;;;;7399180;19;19926;-78
2023/04/21 06:32:40;;;;;;;10.05;6.05;;;8.70;99.90;;;;;;7399674;19;19919;-78
2023/04/21 06:35:13;;;;;;;10.95;6.28;;;8.60;99.90;;;;;;7399957;19;19922;-77
2023/04/21 06:37:42;;;;;;;11.63;6.20;;;8.70;99.90;;;;;;7400716;19;19919;-78
2023/04/21 06:40:14;;;;;;;8.82;5.97;;;8.90;99.90;;;;;;7399437;19;19942;-77
2023/04/21 06:42:43;;;;;;;13.85;6.40;;;8.70;99.90;;;;;;7400004;19;19929;-77
2023/04/21 06:45:13;;;;;;;13.40;5.82;;;8.70;99.90;;;;;;7401526;19;19939;-77
2023/04/21 06:47:42;;;;;;;17.92;6.63;;;8.80;99.90;;;;;;7400013;19;19930;-76
2023/04/21 06:50:14;;;;;;;11.07;5.85;;;8.90;99.90;;;;;;7399772;19;19950;-76
2023/04/21 06:52:42;;;;;;;12.15;6.15;;;9.00;99.90;;;;;;7399685;19;19934;-78
2023/04/21 06:55:12;;;;;;;11.57;6.13;;;9.10;99.90;;;;;;7399147;19;19982;-78
2023/04/21 06:57:40;;;;;;;13.98;6.57;;;9.00;99.90;;;;;;7405900;19;19943;-79
2023/04/21 07:00:11;;;;;;;10.48;6.78;;;9.10;99.90;;;;;;7404969;19;20280;-78
2023/04/21 07:02:40;;;;;;;10.57;5.97;;;9.10;99.90;;;;;;7404152;19;19915;-78
2023/04/21 07:05:09;;;;;;;15.43;6.38;;;9.20;99.90;;;;;;7406910;19;19982;-78
2023/04/21 07:07:41;;;;;;;9.57;5.20;;;9.20;99.90;;;;;;7407379;19;20268;-77
2023/04/21 07:10:11;;;;;;;12.38;5.68;;;9.20;99.90;;;;;;7403793;19;20286;-79
2023/04/21 07:12:40;;;;;;;9.63;6.20;;;9.40;99.90;;;;;;7405684;19;19938;-77
2023/04/21 07:15:11;;;;;;;10.20;5.70;;;9.40;99.90;;;;;;7404439;19;19930;-78
2023/04/21 07:17:40;;;;;;;10.85;6.18;;;9.60;99.90;;;;;;7404841;19;19921;-77
2023/04/21 07:20:10;;;;;;;10.13;6.45;;;9.50;99.90;;;;;;7405591;19;19923;-76
2023/04/21 07:22:42;;;;;;;11.95;7.05;;;9.60;99.90;;;;;;7407072;19;19927;-77
2023/04/21 07:25:12;;;;;;;10.90;6.30;;;9.60;99.90;;;;;;7406738;19;19940;-76
2023/04/21 07:27:41;;;;;;;12.45;6.68;;;9.70;99.90;;;;;;7404630;19;19926;-77
2023/04/21 07:30:11;;;;;;;12.02;6.63;;;9.80;99.90;;;;;;7405494;19;20367;-77
2023/04/21 07:32:40;;;;;;;11.98;6.60;;;9.90;99.90;;;;;;7405434;19;20287;-77
2023/04/21 07:35:10;;;;;;;9.25;6.35;;;9.90;99.90;;;;;;7405921;19;20452;-76
2023/04/21 07:37:42;;;;;;;12.27;6.60;;;10.00;99.90;;;;;;7405803;19;19933;-77
2023/04/21 07:40:11;;;;;;;;;;;10.00;99.90;;;;;;7406070;19;19914;-76
2023/04/21 07:42:40;;;;;;;16.13;6.68;;;10.00;99.90;;;;;;7405707;19;19935;-76
2023/04/21 07:45:10;;;;;;;10.13;6.00;;;10.20;99.90;;;;;;7406050;19;19929;-77
2023/04/21 07:47:39;;;;;;;15.68;7.43;;;10.20;99.90;;;;;;7403307;19;19970;-76
2023/04/21 07:50:09;;;;;;;16.52;6.28;;;10.30;99.90;;;;;;7403869;19;20399;-76
2023/04/21 07:52:41;;;;;;;10.65;6.32;;;10.30;99.90;;;;;;7407700;19;19932;-77
2023/04/21 07:55:10;;;;;;;7.93;5.85;;;10.30;99.90;;;;;;7404749;19;19922;-77
2023/04/21 07:57:39;;;;;;;12.90;6.18;;;10.50;99.90;;;;;;7400498;19;19922;-77
2023/04/21 08:00:10;;;;;;;14.98;6.53;;;10.50;99.90;;;;;;7404511;19;20025;-77
2023/04/21 08:02:39;;;;;;;14.93;6.70;;;10.60;99.90;;;;;;7405380;19;20276;-77
2023/04/21 08:05:09;;;;;;;13.43;6.18;;;10.70;99.90;;;;;;7406082;19;19926;-77
2023/04/21 08:07:38;;;;;;;15.05;6.75;;;10.80;99.90;;;;;;7402527;19;20360;-77
2023/04/21 08:10:11;;;;;;;13.63;6.22;;;10.90;99.90;;;;;;7402454;19;19946;-78
2023/04/21 08:12:40;;;;;;;11.68;6.38;;;10.90;99.90;;;;;;7404216;19;19919;-78
2023/04/21 08:15:11;;;;;;;11.65;5.70;;;10.90;99.90;;;;;;7403554;19;20641;-78
2023/04/21 08:17:40;;;;;;;11.23;7.28;;;11.10;99.90;;;;;;7401474;19;19926;-78
2023/04/21 08:20:10;;;;;;;10.25;6.00;;;11.10;99.90;;;;;;7406394;19;19923;-77
2023/04/21 08:22:39;;;;;;;10.43;5.72;;;11.10;99.90;;;;;;7405494;19;19926;-77
2023/04/21 08:25:11;;;;;;;15.27;6.57;;;11.30;99.90;;;;;;7405116;19;19926;-77
2023/04/21 08:27:40;;;;;;;;;;;11.30;99.90;;;;;;7406962;19;19931;-77
2023/04/21 08:30:11;;;;;;;15.25;7.05;;;11.30;99.90;;;;;;7403334;19;19922;-77
2023/04/21 08:32:40;;;;;;;11.18;5.50;;;11.50;99.90;;;;;;7401794;19;19933;-77
2023/04/21 08:35:10;;;;;;;11.48;6.07;;;11.70;99.90;;;;;;7403128;19;19926;-77
2023/04/21 08:37:40;;;;;;;13.40;7.13;;;11.60;99.90;;;;;;7403223;19;19941;-78
2023/04/21 08:40:13;;;;;;;9.35;5.90;;;11.70;99.90;;;;;;7403092;19;20514;-77
2023/04/21 08:42:42;;;;;;;11.02;5.72;;;11.80;99.90;;;;;;7402447;19;19928;-77
2023/04/21 08:45:12;;;;;;;15.98;5.95;;;11.90;99.90;;;;;;7404201;19;19929;-77
2023/04/21 08:47:42;;;;;;;9.38;6.22;;;12.00;99.90;;;;;;7401720;19;19929;-78
2023/04/21 08:50:15;;;;;;;14.27;5.30;;;12.10;99.90;;;;;;7401047;19;20464;-79
2023/04/21 08:52:44;;;;;;;13.98;5.70;;;12.20;99.90;;;;;;7402699;19;19919;-77
2023/04/21 08:55:17;;;;;;;10.23;5.93;;;12.20;99.90;;;;;;7402318;19;19933;-77
2023/04/21 08:57:46;;;;;;;13.45;5.75;;;12.40;99.90;;;;;;7400980;19;19931;-77
2023/04/21 09:00:16;;;;;;;11.40;5.75;;;12.40;99.90;;;;;;7401757;19;19915;-78
2023/04/21 09:02:58;;;;;;;10.95;5.18;;;12.60;99.90;;;;;;7403927;19;19919;-78
2023/04/21 09:05:29;;;;;;;11.23;5.78;;;12.80;99.90;;;;;;7403134;19;19940;-78
2023/04/21 09:08:10;;;;;;;8.27;4.75;;;12.70;99.90;;;;;;7403132;19;19923;-78
2023/04/21 09:10:51;;;;;;;11.77;5.63;;;12.80;99.90;;;;;;7400415;19;19953;-78
2023/04/21 09:13:22;;;;;;;15.48;5.75;;;12.90;99.90;;;;;;7401573;19;19929;-77
2023/04/21 09:15:52;;;;;;;12.25;5.68;;;12.90;99.90;;;;;;7400991;19;20596;-77
2023/04/21 09:18:22;;;;;;;10.25;6.25;;;13.00;99.90;;;;;;7400692;19;19926;-78
2023/04/21 09:20:53;;;;;;;13.32;6.80;;;13.10;99.90;;;;;;7403646;19;19926;-78
2023/04/21 09:23:23;;;;;;;11.55;5.97;;;13.30;99.90;;;;;;7400696;19;20030;-78
2023/04/21 09:25:56;;;;;;;8.80;5.25;;;13.40;99.90;;;;;;7402501;19;19933;-77
2023/04/21 09:28:25;;;;;;;14.05;5.95;;;13.50;99.90;;;;;;7402067;19;19926;-77
2023/04/21 09:30:57;;;;;;;13.43;6.15;;;13.40;99.90;;;;;;7401687;19;19929;-76
2023/04/21 09:33:27;;;;;;;8.65;5.45;;;13.60;99.90;;;;;;7402602;19;20259;-76
2023/04/21 09:35:56;;;;;;;11.00;5.40;;;13.80;99.90;;;;;;7402137;19;19922;-76
2023/04/21 09:38:25;;;;;;;9.98;5.80;;;13.80;99.90;;;;;;7402637;19;19934;-77
2023/04/21 09:41:01;;;;;;;10.55;5.50;;;13.90;99.90;;;;;;7402134;19;19937;-77
2023/04/21 09:43:30;;;;;;;10.50;6.20;;;14.10;99.90;;;;;;7400746;19;19918;-78
2023/04/21 09:46:01;;;;;;;10.98;5.57;;;14.10;99.90;;;;;;7401313;19;19915;-77
2023/04/21 09:48:34;;;;;;;10.48;5.65;;;14.20;99.90;;;;;;7400347;19;19918;-77
2023/04/21 09:51:03;;;;;;;9.57;5.63;;;14.40;99.90;;;;;;7402395;19;19923;-77
2023/04/21 09:53:40;;;;;;;13.43;5.78;;;14.30;99.90;;;;;;7399176;19;20346;-78
2023/04/21 09:56:14;;;;;;;12.73;5.57;;;14.50;99.90;;;;;;7400080;19;19943;-77
2023/04/21 09:58:47;;;;;;;14.48;6.35;;;14.60;99.90;;;;;;7399944;19;19939;-78
2023/04/21 10:01:17;;;;;;;10.43;5.45;;;14.80;99.90;;;;;;7398917;19;19923;-77
2023/04/21 10:03:47;;;;;;;10.68;5.28;;;14.90;99.90;;;;;;7398058;19;20363;-77
2023/04/21 10:06:16;;;;;;;10.95;5.53;;;14.90;99.90;;;;;;7391011;19;19922;-79
2023/04/21 10:08:46;;;;;;;11.55;5.38;;;15.00;99.90;;;;;;7403811;19;19996;-74
2023/04/21 10:11:19;;;;;;;11.45;5.05;;;15.10;99.90;;;;;;7398611;19;19926;-73
2023/04/21 10:13:49;;;;;;;9.82;5.00;;;15.30;99.90;;;;;;7400172;19;19922;-75
2023/04/21 10:16:21;;;;;;;11.02;4.80;;;15.20;99.90;;;;;;7399695;19;20237;-75
2023/04/21 10:18:50;;;;;;;15.77;5.47;;;15.30;99.90;;;;;;7400079;19;19923;-75
2023/04/21 10:21:21;;;;;;;10.95;4.65;;;15.40;99.90;;;;;;7400709;19;19923;-76
2023/04/21 10:23:52;;;;;;;8.30;4.80;;;15.50;99.90;;;;;;7399253;19;19923;-76
2023/04/21 10:26:27;;;;;;;9.48;4.30;;;15.70;99.90;;;;;;7398479;19;19923;-76
2023/04/21 10:28:59;;;;;;;8.27;4.57;;;15.80;99.90;;;;;;7397968;19;19923;-76
2023/04/21 10:31:33;;;;;;;13.88;4.40;;;16.50;99.90;;;;;;7397243;19;19926;-75
2023/04/21 10:34:23;;;;;;;8.25;4.57;;;16.10;99.90;;;;;;7398932;19;19918;-75
2023/04/21 10:37:11;;;;;;;11.07;4.25;;;16.00;99.90;;;;;;7399415;19;19922;-75
2023/04/21 10:39:47;;;;;;;9.68;4.53;;;16.20;99.90;;;;;;7397861;19;19939;-77
2023/04/21 10:42:26;;;;;;;12.45;4.00;;;16.30;99.90;;;;;;7400666;19;20491;-76
2023/04/21 10:45:11;;;;;;;11.77;5.00;;;16.40;99.90;;;;;;7401233;19;19947;-76
2023/04/21 10:47:47;;;;;;;8.88;4.18;;;16.40;99.90;;;;;;7400356;19;19925;-76
2023/04/21 10:50:19;;;;;;;6.80;4.13;;;16.50;99.90;;;;;;7400126;19;19946;-75
2023/04/21 10:52:53;;;;;;;7.97;4.25;;;16.60;99.90;;;;;;7401234;19;20018;-76
2023/04/21 10:55:23;;;;;;;14.85;4.55;;;16.70;99.90;;;;;;7399532;19;20284;-77
2023/04/21 10:57:55;;;;;;;8.18;4.43;;;16.80;99.90;;;;;;7399444;19;19925;-76
2023/04/21 11:00:26;;;;;;;8.60;4.43;;;17.00;99.90;;;;;;7398973;19;19923;-76
2023/04/21 11:02:59;;;;;;;7.47;4.60;;;17.00;99.90;;;;;;7400794;19;20344;-76
2023/04/21 11:05:34;;;;;;;9.35;4.43;;;17.10;99.90;;;;;;7399706;19;19951;-76
2023/04/21 11:08:13;;;;;;;10.07;4.45;;;17.10;99.90;;;;;;7398853;19;19978;-77
2023/04/21 11:10:47;;;;;;;8.90;3.83;;;17.40;99.90;;;;;;7399157;19;19979;-76
2023/04/21 11:13:18;;;;;;;8.63;3.97;;;17.30;99.90;;;;;;7400153;19;20320;-76
2023/04/21 11:16:04;;;;;;;9.88;4.65;;;17.50;99.90;;;;;;7398891;19;19993;-76
2023/04/21 11:18:41;;;;;;;8.98;3.70;;;17.70;99.90;;;;;;7397024;19;19925;-76
2023/04/21 11:21:12;;;;;;;11.73;4.35;;;17.60;99.90;;;;;;7399961;19;22174;-77
2023/04/21 11:23:49;;;;;;;6.57;4.35;;;17.60;99.90;;;;;;7400830;19;19950;-76
2023/04/21 11:26:19;;;;;;;7.25;4.28;;;17.60;99.90;;;;;;7399658;19;19925;-76
2023/04/21 11:28:52;;;;;;;8.80;4.35;;;17.70;99.90;;;;;;7399572;19;19922;-76
2023/04/21 11:31:21;;;;;;;7.65;4.22;;;17.80;99.90;;;;;;7397504;19;19946;-76
2023/04/21 11:33:51;;;;;;;7.80;3.45;;;17.90;99.90;;;;;;7398659;19;20316;-76
2023/04/21 11:36:24;;;;;;;10.20;4.13;;;17.90;99.90;;;;;;7398793;19;19929;-76
2023/04/21 11:38:52;;;;;;;;;;;18.00;99.90;;;;;;7402285;19;19922;-76
2023/04/21 11:41:25;;;;;;;6.70;4.38;;;18.10;99.90;;;;;;7393026;19;19923;-77
2023/04/21 11:43:56;;;;;;;17.38;4.75;;;18.10;99.90;;;;;;7406489;19;19938;-77
2023/04/21 11:46:27;;;;;;;8.45;3.88;;;18.30;99.90;;;;;;7404534;19;19932;-80
2023/04/21 11:49:04;;;;;;;7.07;4.28;;;18.30;99.90;;;;;;7401096;19;19939;-78
2023/04/21 11:51:36;;;;;;;7.93;4.07;;;18.30;99.90;;;;;;7405133;19;20392;-78
2023/04/21 11:54:08;;;;;;;7.70;3.88;;;18.30;99.90;;;;;;7404792;19;19938;-84
2023/04/21 11:56:37;;;;;;;;;;;18.40;99.90;;;;;;7407107;19;19962;-81
2023/04/21 11:59:12;;;;;;;7.05;3.35;;;18.60;99.90;;;;;;7402887;19;19946;-82
2023/04/21 12:01:47;;;;;;;5.35;3.17;;;18.60;99.90;;;;;;7402736;19;19922;-79
2023/04/21 12:04:18;;;;;;;6.00;3.30;;;18.70;99.90;;;;;;7403023;19;20354;-83
2023/04/21 12:06:48;;;;;;;7.38;3.33;;;18.70;99.90;;;;;;7403497;19;20353;-82
2023/04/21 12:09:21;;;;;;;9.55;3.40;;;18.80;99.90;;;;;;7402269;19;20396;-80
2023/04/21 12:11:51;;;;;;;9.02;3.83;;;18.80;99.90;;;;;;7403856;19;20002;-81
2023/04/21 12:14:25;;;;;;;7.30;3.15;;;18.80;99.90;;;;;;7405500;19;19923;-83
2023/04/21 12:16:58;;;;;;;7.88;3.78;;;18.90;99.90;;;;;;7404737;19;19963;-82
2023/04/21 12:19:38;;;;;;;5.00;2.80;;;19.00;99.90;;;;;;7405594;19;19915;-82
2023/04/21 12:22:09;;;;;;;9.02;3.42;;;19.10;99.90;;;;;;7396769;19;20577;-79
2023/04/21 12:24:39;;;;;;;7.28;3.30;;;19.20;99.90;;;;;;7393357;19;19926;-79
2023/04/21 12:27:08;;;;;;;6.68;3.33;;;19.50;99.90;;;;;;7403856;19;19942;-82
2023/04/21 12:29:41;;;;;;;6.57;3.03;;;18.50;99.90;;;;;;7405383;19;19918;-80
2023/04/21 12:32:11;;;;;;;4.68;2.97;;;19.60;99.90;;;;;;7405010;19;19915;-79
2023/04/21 12:34:40;;;;;;;4.47;2.85;;;19.40;99.90;;;;;;7406485;19;19929;-81
2023/04/21 12:37:11;;;;;;;6.97;2.72;;;19.60;99.90;;;;;;7410976;19;19990;-81
2023/04/21 12:39:40;;;;;;;6.05;3.25;;;19.50;99.90;;;;;;7404357;19;20325;-80
2023/04/21 12:42:09;;;;;;;10.15;3.17;;;19.50;99.90;;;;;;7408570;19;19979;-87
2023/04/21 12:44:40;;;;;;;5.55;2.60;;;19.70;99.90;;;;;;7407388;19;19923;-89
2023/04/21 12:47:09;;;;;;;;;;;19.40;99.90;;;;;;7413631;19;20340;-79
2023/04/21 12:49:38;;;;;;;7.85;3.00;;;19.20;99.90;;;;;;7401721;19;19919;-80
2023/04/21 12:52:07;;;;;;;7.07;3.17;;;19.20;99.90;;;;;;7403987;19;19930;-80
2023/04/21 12:54:36;;;;;;;8.30;3.40;;;19.30;99.90;;;;;;7403944;19;19950;-80
2023/04/21 12:57:05;;;;;;;5.90;2.92;;;19.40;99.90;;;;;;7401487;19;19949;-79
2023/04/21 12:59:34;;;;;;;4.57;2.97;;;19.50;99.90;;;;;;7401176;19;19928;-81
2023/04/21 13:02:06;;;;;;;8.50;3.13;;;19.70;99.90;;;;;;7401936;19;19926;-87
2023/04/21 13:04:35;;;;;;;;;;;20.00;99.90;;;;;;7402278;19;19978;-81
2023/04/21 13:07:04;;;;;;;6.03;3.10;;;20.10;99.90;;;;;;7400529;19;20036;-82